createdAt,value
2022-08-01T00:00:08.699Z,21.40
2022-08-01T00:02:40.500Z,21.40
2022-08-01T00:05:09.439Z,21.20
2022-08-01T00:07:37.015Z,21.20
2022-08-01T00:10:09.387Z,21.30
2022-08-01T00:12:36.239Z,21.20
2022-08-01T00:15:04.418Z,21.20
2022-08-01T00:17:31.079Z,21.10
2022-08-01T00:19:57.787Z,21.20
2022-08-01T00:22:24.624Z,21.10
2022-08-01T00:24:51.369Z,21.10
2022-08-01T00:27:18.371Z,21.00
2022-08-01T00:30:12.592Z,21.00
2022-08-01T00:32:32.690Z,21.00
2022-08-01T00:34:59.407Z,20.90
2022-08-01T00:37:26.159Z,20.90
2022-08-01T00:39:52.878Z,20.80
2022-08-01T00:42:19.595Z,20.90
2022-08-01T00:44:46.487Z,20.90
2022-08-01T00:47:13.224Z,20.70
2022-08-01T00:49:40.060Z,20.70
2022-08-01T00:52:07.754Z,20.60
2022-08-01T00:54:34.825Z,20.60
2022-08-01T00:57:01.601Z,20.60
2022-08-01T00:59:28.359Z,20.40
2022-08-01T01:02:01.714Z,20.40
2022-08-01T01:04:28.460Z,20.50
2022-08-01T01:07:17.796Z,20.40
2022-08-01T01:10:01.745Z,20.50
2022-08-01T01:12:49.957Z,20.50
2022-08-01T01:15:27.547Z,20.50
2022-08-01T01:18:04.697Z,20.50
2022-08-01T01:20:39.886Z,20.50
2022-08-01T01:23:21.684Z,20.40
2022-08-01T01:26:22.302Z,20.40
2022-08-01T01:29:20.590Z,20.30
2022-08-01T01:31:57.034Z,20.40
2022-08-01T01:34:24.700Z,20.40
2022-08-01T01:36:54.911Z,20.40
2022-08-01T01:39:22.485Z,20.40
2022-08-01T01:41:49.823Z,20.30
2022-08-01T01:44:17.065Z,20.20
2022-08-01T01:46:44.470Z,20.20
2022-08-01T01:49:12.589Z,20.00
2022-08-01T01:51:42.010Z,20.00
2022-08-01T01:54:16.078Z,20.00
2022-08-01T01:56:52.451Z,20.00
2022-08-01T01:59:25.890Z,20.00
2022-08-01T02:02:08.827Z,20.00
2022-08-01T02:04:43.468Z,19.90
2022-08-01T02:07:13.323Z,19.80
2022-08-01T02:09:42.633Z,19.80
2022-08-01T02:12:12.572Z,19.70
2022-08-01T02:14:43.206Z,19.70
2022-08-01T02:17:13.160Z,19.70
2022-08-01T02:19:40.079Z,19.60
2022-08-01T02:22:21.081Z,19.60
2022-08-01T02:24:53.118Z,19.50
2022-08-01T02:27:26.666Z,19.60
2022-08-01T02:30:02.285Z,19.70
2022-08-01T02:32:40.954Z,19.60
2022-08-01T02:35:12.468Z,19.50
2022-08-01T02:37:44.371Z,19.60
2022-08-01T02:40:14.665Z,19.60
2022-08-01T02:42:46.276Z,19.60
2022-08-01T02:45:14.550Z,19.50
2022-08-01T02:47:43.323Z,19.40
2022-08-01T02:50:13.348Z,19.50
2022-08-01T02:52:42.733Z,19.30
2022-08-01T02:55:11.316Z,19.40
2022-08-01T02:57:52.539Z,19.40
2022-08-01T03:00:25.097Z,19.50
2022-08-01T03:02:55.955Z,19.50
2022-08-01T03:05:24.937Z,19.40
2022-08-01T03:07:53.977Z,19.40
2022-08-01T03:10:22.051Z,19.40
2022-08-01T03:12:51.704Z,19.40
2022-08-01T03:15:19.769Z,19.40
2022-08-01T03:17:47.772Z,19.40
2022-08-01T03:20:17.487Z,19.50
2022-08-01T03:22:46.043Z,19.40
2022-08-01T03:25:15.158Z,19.40
2022-08-01T03:27:44.305Z,19.40
2022-08-01T03:30:12.190Z,19.40
2022-08-01T03:32:39.831Z,19.30
2022-08-01T03:35:07.131Z,19.30
2022-08-01T03:38:13.186Z,19.20
2022-08-01T03:40:37.020Z,19.10
2022-08-01T03:43:08.220Z,19.20
2022-08-01T03:45:41.413Z,19.10
2022-08-01T03:48:14.239Z,19.10
2022-08-01T03:50:43.878Z,19.10
2022-08-01T03:53:11.837Z,18.90
2022-08-01T03:55:42.076Z,19.00
2022-08-01T03:58:10.711Z,19.00
2022-08-01T04:00:40.972Z,19.00
2022-08-01T04:03:11.830Z,19.00
2022-08-01T04:05:41.277Z,18.90
2022-08-01T04:08:08.040Z,18.80
2022-08-01T04:10:35.008Z,18.80
2022-08-01T04:13:01.847Z,18.80
2022-08-01T04:15:28.628Z,18.80
2022-08-01T04:17:55.546Z,18.80
2022-08-01T04:20:22.576Z,18.90
2022-08-01T04:22:49.466Z,18.80
2022-08-01T04:25:26.001Z,18.80
2022-08-01T04:27:55.275Z,18.80
2022-08-01T04:30:28.024Z,18.90
2022-08-01T04:32:58.433Z,18.80
2022-08-01T04:36:03.006Z,18.90
2022-08-01T04:38:18.126Z,18.90
2022-08-01T04:40:47.159Z,19.00
2022-08-01T04:43:15.036Z,19.00
2022-08-01T04:45:44.551Z,18.90
2022-08-01T04:48:11.998Z,18.90
2022-08-01T04:50:38.738Z,19.00
2022-08-01T04:53:06.090Z,19.10
2022-08-01T04:55:32.890Z,19.10
2022-08-01T04:57:59.585Z,19.20
2022-08-01T05:00:27.063Z,19.30
2022-08-01T05:02:53.742Z,19.30
2022-08-01T05:05:21.946Z,19.40
2022-08-01T05:07:48.646Z,19.40
2022-08-01T05:10:15.423Z,19.40
2022-08-01T05:12:42.137Z,19.40
2022-08-01T05:15:14.949Z,19.50
2022-08-01T05:17:45.628Z,19.30
2022-08-01T05:20:12.906Z,19.30
2022-08-01T05:22:39.880Z,19.30
2022-08-01T05:25:07.234Z,19.30
2022-08-01T05:27:38.730Z,19.40
2022-08-01T05:30:07.238Z,19.60
2022-08-01T05:32:33.923Z,19.70
2022-08-01T05:35:00.916Z,19.80
2022-08-01T05:37:27.618Z,19.80
2022-08-01T05:39:54.333Z,19.90
2022-08-01T05:42:21.226Z,19.90
2022-08-01T05:44:48.560Z,20.00
2022-08-01T05:47:15.254Z,20.10
2022-08-01T05:49:41.956Z,20.10
2022-08-01T05:52:09.344Z,20.10
2022-08-01T05:54:36.646Z,20.20
2022-08-01T05:57:03.707Z,20.20
2022-08-01T05:59:30.918Z,20.30
2022-08-01T06:01:58.098Z,20.40
2022-08-01T06:04:25.049Z,20.40
2022-08-01T06:06:51.767Z,20.40
2022-08-01T06:09:18.571Z,20.40
2022-08-01T06:11:45.326Z,20.50
2022-08-01T06:14:12.111Z,20.50
2022-08-01T06:16:38.828Z,20.60
2022-08-01T06:19:05.547Z,20.70
2022-08-01T06:21:32.227Z,20.80
2022-08-01T06:23:58.953Z,20.80
2022-08-01T06:26:25.669Z,20.90
2022-08-01T06:28:52.392Z,20.90
2022-08-01T06:31:19.185Z,21.00
2022-08-01T06:33:45.954Z,21.10
2022-08-01T06:36:12.770Z,21.20
2022-08-01T06:38:39.529Z,21.20
2022-08-01T06:41:06.238Z,21.20
2022-08-01T06:43:32.969Z,21.30
2022-08-01T06:45:59.739Z,21.30
2022-08-01T06:48:27.462Z,21.30
2022-08-01T06:51:08.894Z,21.50
2022-08-01T06:53:39.376Z,21.50
2022-08-01T06:56:07.560Z,21.60
2022-08-01T06:58:35.618Z,21.70
2022-08-01T07:01:04.952Z,21.60
2022-08-01T07:03:54.441Z,21.70
2022-08-01T07:06:18.950Z,21.80
2022-08-01T07:08:45.661Z,21.90
2022-08-01T07:11:12.399Z,21.90
2022-08-01T07:13:43.993Z,22.00
2022-08-01T07:16:13.498Z,22.00
2022-08-01T07:18:40.433Z,22.00
2022-08-01T07:21:07.447Z,22.10
2022-08-01T07:23:55.742Z,22.30
2022-08-01T07:26:22.646Z,22.40
2022-08-01T07:28:49.371Z,22.40
2022-08-01T07:31:16.170Z,22.50
2022-08-01T07:33:48.516Z,22.50
2022-08-01T07:36:17.057Z,22.60
2022-08-01T07:38:44.116Z,22.70
2022-08-01T07:41:11.277Z,22.60
2022-08-01T07:43:38.293Z,22.60
2022-08-01T07:46:05.666Z,22.60
2022-08-01T07:48:32.489Z,22.60
2022-08-01T07:50:59.255Z,22.60
2022-08-01T07:53:26.670Z,22.60
2022-08-01T07:55:53.481Z,22.60
2022-08-01T07:58:20.206Z,22.50
2022-08-01T08:00:47.028Z,22.60
2022-08-01T08:03:13.729Z,22.70
2022-08-01T08:05:58.815Z,22.90
2022-08-01T08:08:27.436Z,23.00
2022-08-01T08:10:54.383Z,23.10
2022-08-01T08:13:21.217Z,23.10
2022-08-01T08:15:48.674Z,23.10
2022-08-01T08:18:15.845Z,23.00
2022-08-01T08:20:42.579Z,23.00
2022-08-01T08:23:42.008Z,23.00
2022-08-01T08:26:11.821Z,23.00
2022-08-01T08:28:38.570Z,23.00
2022-08-01T08:31:07.733Z,23.10
2022-08-01T08:33:52.649Z,23.20
2022-08-01T08:36:19.575Z,23.20
2022-08-01T08:38:46.269Z,23.20
2022-08-01T08:41:17.921Z,23.20
2022-08-01T08:43:47.530Z,23.20
2022-08-01T08:46:15.883Z,23.20
2022-08-01T08:48:43.085Z,23.20
2022-08-01T08:51:12.456Z,23.30
2022-08-01T08:53:44.891Z,23.30
2022-08-01T08:56:14.374Z,23.30
2022-08-01T08:58:46.247Z,23.40
2022-08-01T09:01:13.870Z,23.40
2022-08-01T09:03:41.970Z,23.50
2022-08-01T09:06:08.993Z,23.80
2022-08-01T09:08:36.201Z,24.10
2022-08-01T09:11:03.525Z,24.10
2022-08-01T09:13:30.802Z,23.80
2022-08-01T09:16:00.605Z,23.70
2022-08-01T09:18:41.366Z,23.60
2022-08-01T09:21:15.417Z,23.70
2022-08-01T09:23:53.371Z,23.90
2022-08-01T09:26:23.006Z,24.10
2022-08-01T09:28:51.122Z,24.10
2022-08-01T09:31:19.539Z,24.00
2022-08-01T09:33:59.586Z,24.00
2022-08-01T09:36:43.754Z,24.00
2022-08-01T09:39:16.799Z,24.00
2022-08-01T09:41:43.540Z,24.20
2022-08-01T09:44:10.264Z,24.40
2022-08-01T09:46:37.528Z,24.60
2022-08-01T09:49:07.326Z,24.80
2022-08-01T09:51:58.789Z,24.80
2022-08-01T09:54:34.512Z,25.00
2022-08-01T09:57:14.791Z,25.50
2022-08-01T09:59:57.694Z,25.60
2022-08-01T10:02:40.965Z,25.60
2022-08-01T10:05:11.005Z,25.20
2022-08-01T10:08:02.914Z,25.10
2022-08-01T10:10:34.842Z,24.80
2022-08-01T10:13:05.178Z,24.80
2022-08-01T10:15:36.956Z,24.80
2022-08-01T10:18:16.214Z,25.10
2022-08-01T10:20:53.109Z,25.70
2022-08-01T10:23:39.820Z,25.50
2022-08-01T10:26:08.498Z,25.40
2022-08-01T10:28:39.433Z,25.40
2022-08-01T10:31:13.116Z,25.60
2022-08-01T10:33:50.929Z,25.60
2022-08-01T10:36:22.661Z,25.80
2022-08-01T10:38:50.330Z,25.90
2022-08-01T10:41:19.582Z,26.30
2022-08-01T10:43:47.036Z,26.30
2022-08-01T10:46:14.338Z,26.40
2022-08-01T10:51:18.206Z,26.10
2022-08-01T10:53:54.170Z,26.20
2022-08-01T10:56:26.909Z,26.20
2022-08-01T10:59:06.849Z,26.40
2022-08-01T11:01:43.427Z,26.70
2022-08-01T11:04:17.408Z,27.00
2022-08-01T11:07:03.205Z,27.10
2022-08-01T11:09:39.909Z,27.10
2022-08-01T11:12:13.320Z,27.40
2022-08-01T11:15:08.423Z,27.30
2022-08-01T11:17:43.124Z,27.10
2022-08-01T11:20:14.243Z,26.90
2022-08-01T11:23:00.168Z,26.70
2022-08-01T11:26:03.937Z,26.60
2022-08-01T11:28:36.453Z,26.60
2022-08-01T11:31:11.607Z,26.60
2022-08-01T11:33:45.447Z,26.60
2022-08-01T11:36:55.410Z,26.60
2022-08-01T11:39:13.456Z,26.60
2022-08-01T11:41:41.265Z,26.60
2022-08-01T11:44:26.247Z,26.60
2022-08-01T11:47:08.761Z,26.40
2022-08-01T11:49:41.949Z,26.40
2022-08-01T11:52:16.100Z,26.70
2022-08-01T11:54:49.655Z,26.90
2022-08-01T11:57:34.672Z,27.20
2022-08-01T12:00:15.535Z,27.60
2022-08-01T12:02:46.299Z,28.00
2022-08-01T12:05:16.018Z,27.90
2022-08-01T12:07:45.043Z,28.00
2022-08-01T12:10:17.513Z,28.30
2022-08-01T12:12:52.804Z,28.40
2022-08-01T12:15:21.491Z,28.30
2022-08-01T12:17:59.050Z,28.10
2022-08-01T12:20:32.049Z,27.90
2022-08-01T12:23:04.075Z,27.80
2022-08-01T12:25:30.846Z,27.60
2022-08-01T12:28:04.865Z,27.50
2022-08-01T12:30:36.079Z,27.40
2022-08-01T12:33:05.877Z,27.30
2022-08-01T12:35:33.362Z,27.30
2022-08-01T12:38:03.428Z,27.90
2022-08-01T12:40:33.221Z,28.20
2022-08-01T12:43:03.336Z,28.30
2022-08-01T12:45:33.894Z,28.80
2022-08-01T12:48:01.796Z,28.80
2022-08-01T12:50:32.168Z,28.80
2022-08-01T12:53:00.749Z,28.40
2022-08-01T12:55:34.359Z,28.30
2022-08-01T12:58:15.489Z,28.30
2022-08-01T13:00:45.496Z,28.40
2022-08-01T13:03:17.098Z,28.30
2022-08-01T13:05:49.976Z,28.30
2022-08-01T13:08:19.005Z,28.10
2022-08-01T13:10:46.208Z,28.10
2022-08-01T13:13:22.237Z,27.90
2022-08-01T13:16:05.534Z,27.80
2022-08-01T13:18:33.960Z,27.70
2022-08-01T13:21:23.185Z,27.70
2022-08-01T13:24:04.785Z,27.60
2022-08-01T13:26:54.324Z,27.70
2022-08-01T13:29:24.067Z,28.00
2022-08-01T13:31:50.926Z,28.30
2022-08-01T13:34:17.963Z,28.30
2022-08-01T13:36:49.358Z,28.10
2022-08-01T13:39:55.122Z,27.90
2022-08-01T13:42:21.779Z,27.80
2022-08-01T13:44:48.455Z,27.70
2022-08-01T13:47:16.298Z,28.00
2022-08-01T13:49:44.170Z,28.10
2022-08-01T13:52:11.083Z,27.90
2022-08-01T13:54:37.869Z,28.00
2022-08-01T13:57:04.650Z,28.10
2022-08-01T13:59:31.482Z,28.20
2022-08-01T14:01:58.223Z,28.10
2022-08-01T14:04:25.011Z,28.10
2022-08-01T14:06:51.719Z,28.00
2022-08-01T14:09:24.141Z,28.10
2022-08-01T14:11:51.723Z,28.30
2022-08-01T14:14:18.444Z,28.30
2022-08-01T14:16:45.976Z,28.40
2022-08-01T14:19:13.143Z,28.50
2022-08-01T14:21:39.884Z,28.50
2022-08-01T14:24:07.660Z,28.70
2022-08-01T14:26:34.567Z,28.80
2022-08-01T14:29:03.171Z,28.80
2022-08-01T14:31:34.069Z,28.70
2022-08-01T14:34:01.513Z,28.60
2022-08-01T14:36:31.267Z,28.60
2022-08-01T14:39:00.559Z,28.40
2022-08-01T14:41:28.227Z,28.30
2022-08-01T14:43:55.147Z,28.40
2022-08-01T14:46:21.877Z,28.50
2022-08-01T14:48:48.777Z,28.50
2022-08-01T14:51:15.640Z,28.60
2022-08-01T14:53:46.917Z,28.60
2022-08-01T14:56:18.346Z,28.80
2022-08-01T14:58:45.385Z,28.90
2022-08-01T15:01:12.314Z,28.90
2022-08-01T15:03:39.110Z,28.90
2022-08-01T15:06:07.346Z,29.00
2022-08-01T15:08:34.082Z,29.10
2022-08-01T15:11:02.114Z,29.10
2022-08-01T15:13:28.987Z,29.00
2022-08-01T15:15:59.836Z,28.90
2022-08-01T15:18:28.649Z,28.90
2022-08-01T15:20:55.902Z,28.80
2022-08-01T15:23:22.597Z,28.80
2022-08-01T15:25:49.812Z,28.70
2022-08-01T15:28:16.547Z,28.60
2022-08-01T15:30:43.336Z,28.60
2022-08-01T15:33:10.034Z,28.50
2022-08-01T15:35:36.761Z,28.40
2022-08-01T15:38:03.763Z,28.40
2022-08-01T15:40:34.039Z,28.30
2022-08-01T15:43:00.904Z,28.20
2022-08-01T15:48:14.484Z,28.30
2022-08-01T15:50:41.185Z,28.40
2022-08-01T15:53:08.114Z,28.60
2022-08-01T15:55:39.779Z,28.70
2022-08-01T15:58:07.598Z,28.40
2022-08-01T16:00:39.568Z,28.40
2022-08-01T16:03:10.418Z,28.40
2022-08-01T16:05:43.946Z,28.40
2022-08-01T16:08:14.312Z,28.40
2022-08-01T16:10:41.511Z,28.40
2022-08-01T16:13:08.491Z,28.40
2022-08-01T16:15:37.651Z,28.50
2022-08-01T16:18:09.320Z,28.40
2022-08-01T16:20:40.238Z,28.40
2022-08-01T16:23:11.189Z,28.40
2022-08-01T16:25:38.143Z,28.50
2022-08-01T16:28:05.098Z,28.40
2022-08-01T16:30:31.965Z,28.40
2022-08-01T16:32:59.893Z,28.30
2022-08-01T16:35:36.358Z,28.20
2022-08-01T16:38:04.796Z,28.20
2022-08-01T16:40:46.326Z,28.10
2022-08-01T16:43:19.447Z,28.10
2022-08-01T16:45:46.628Z,28.20
2022-08-01T16:48:15.794Z,28.30
2022-08-01T16:50:42.961Z,28.20
2022-08-01T16:53:09.677Z,28.20
2022-08-01T16:55:49.738Z,28.30
2022-08-01T16:58:27.320Z,28.20
2022-08-01T17:00:57.090Z,28.20
2022-08-01T17:03:46.899Z,28.10
2022-08-01T17:06:11.856Z,28.10
2022-08-01T17:08:46.873Z,28.00
2022-08-01T17:11:15.406Z,28.00
2022-08-01T17:13:42.717Z,27.90
2022-08-01T17:16:10.125Z,28.00
2022-08-01T17:18:36.935Z,27.90
2022-08-01T17:21:03.733Z,27.90
2022-08-01T17:23:31.810Z,27.90
2022-08-01T17:25:59.537Z,27.80
2022-08-01T17:28:26.687Z,27.70
2022-08-01T17:30:53.393Z,27.80
2022-08-01T17:33:20.622Z,27.70
2022-08-01T17:35:47.390Z,27.60
2022-08-01T17:38:14.229Z,27.70
2022-08-01T17:40:41.330Z,27.60
2022-08-01T17:43:08.655Z,27.60
2022-08-01T17:45:39.325Z,27.50
2022-08-01T17:48:17.888Z,27.50
2022-08-01T17:50:46.806Z,27.50
2022-08-01T17:53:14.980Z,27.50
2022-08-01T17:55:55.735Z,27.40
2022-08-01T17:58:49.739Z,27.30
2022-08-01T18:01:11.362Z,27.30
2022-08-01T18:03:41.229Z,27.30
2022-08-01T18:06:09.225Z,27.30
2022-08-01T18:08:36.366Z,27.20
2022-08-01T18:11:03.295Z,27.20
2022-08-01T18:13:30.140Z,27.20
2022-08-01T18:15:57.630Z,27.20
2022-08-01T18:18:33.338Z,27.10
2022-08-01T18:21:01.834Z,27.10
2022-08-01T18:23:28.803Z,27.00
2022-08-01T18:25:55.589Z,26.90
2022-08-01T18:28:32.890Z,26.90
2022-08-01T18:31:03.547Z,27.10
2022-08-01T18:33:30.375Z,26.80
2022-08-01T18:36:01.919Z,26.60
2022-08-01T18:38:32.338Z,26.60
2022-08-01T18:41:01.012Z,26.60
2022-08-01T18:43:28.105Z,26.50
2022-08-01T18:45:57.181Z,26.40
2022-08-01T18:48:24.441Z,26.40
2022-08-01T18:50:51.450Z,26.40
2022-08-01T18:53:18.885Z,26.40
2022-08-01T18:55:45.723Z,26.40
2022-08-01T18:58:12.579Z,26.30
2022-08-01T19:00:40.015Z,26.30
2022-08-01T19:03:07.750Z,26.20
2022-08-01T19:05:36.099Z,26.10
2022-08-01T19:08:06.383Z,26.10
2022-08-01T19:10:40.494Z,26.00
2022-08-01T19:13:08.126Z,25.90
2022-08-01T19:15:35.492Z,25.80
2022-08-01T19:18:03.183Z,25.70
2022-08-01T19:20:30.503Z,25.60
2022-08-01T19:22:57.601Z,25.50
2022-08-01T19:25:24.451Z,25.40
2022-08-01T19:27:51.352Z,25.20
2022-08-01T19:30:19.521Z,25.20
2022-08-01T19:32:47.530Z,25.10
2022-08-01T19:35:16.914Z,25.00
2022-08-01T19:37:47.071Z,25.00
2022-08-01T19:40:26.698Z,24.90
2022-08-01T19:42:55.431Z,24.80
2022-08-01T19:45:22.653Z,24.80
2022-08-01T19:47:56.281Z,24.70
2022-08-01T19:50:28.198Z,24.50
2022-08-01T19:52:57.643Z,24.50
2022-08-01T19:55:25.285Z,24.40
2022-08-01T20:00:41.257Z,24.40
2022-08-01T20:03:09.535Z,24.30
2022-08-01T20:05:37.364Z,24.20
2022-08-01T20:08:06.561Z,24.10
2022-08-01T20:10:34.241Z,24.10
2022-08-01T20:13:02.277Z,24.00
2022-08-01T20:15:29.988Z,24.00
2022-08-01T20:18:00.652Z,23.80
2022-08-01T20:20:28.082Z,23.60
2022-08-01T20:22:57.243Z,23.60
2022-08-01T20:25:32.095Z,23.50
2022-08-01T20:28:09.925Z,23.40
2022-08-01T20:30:37.827Z,23.60
2022-08-01T20:33:06.824Z,23.70
2022-08-01T20:35:52.030Z,23.70
2022-08-01T20:38:23.087Z,23.70
2022-08-01T20:40:53.140Z,23.40
2022-08-01T20:43:21.697Z,23.20
2022-08-01T20:45:50.341Z,23.20
2022-08-01T20:48:17.907Z,23.10
2022-08-01T20:51:04.901Z,22.90
2022-08-01T20:53:40.686Z,22.90
2022-08-01T20:56:26.359Z,23.00
2022-08-01T20:59:08.360Z,22.90
2022-08-01T21:01:44.207Z,22.70
2022-08-01T21:04:13.680Z,22.40
2022-08-01T21:06:51.690Z,22.50
2022-08-01T21:09:22.674Z,22.40
2022-08-01T21:11:54.583Z,22.30
2022-08-01T21:14:23.032Z,22.20
2022-08-01T21:16:59.904Z,22.10
2022-08-01T21:19:28.030Z,22.20
2022-08-01T21:22:19.388Z,22.30
2022-08-01T21:24:59.562Z,22.30
2022-08-01T21:27:32.843Z,22.10
2022-08-01T21:30:02.476Z,21.90
2022-08-01T21:32:33.068Z,21.90
2022-08-01T21:35:01.780Z,21.90
2022-08-01T21:37:30.373Z,22.00
2022-08-01T21:39:59.420Z,21.80
2022-08-01T21:42:28.603Z,21.70
2022-08-01T21:45:01.862Z,21.60
2022-08-01T21:47:30.028Z,21.60
2022-08-01T21:50:02.287Z,21.60
2022-08-01T21:52:41.830Z,21.70
2022-08-01T21:55:35.633Z,21.60
2022-08-01T21:58:32.045Z,21.50
2022-08-01T22:01:22.535Z,21.30
2022-08-01T22:03:53.259Z,21.30
2022-08-01T22:06:22.536Z,21.30
2022-08-01T22:08:53.989Z,21.20
2022-08-01T22:11:25.103Z,21.20
2022-08-01T22:13:59.993Z,21.10
2022-08-01T22:16:27.302Z,21.10
2022-08-01T22:18:54.520Z,21.10
2022-08-01T22:21:21.625Z,21.10
2022-08-01T22:23:52.087Z,20.80
2022-08-01T22:26:27.094Z,20.90
2022-08-01T22:28:56.432Z,20.70
2022-08-01T22:31:23.697Z,21.00
2022-08-01T22:33:51.236Z,20.90
2022-08-01T22:36:19.594Z,21.10
2022-08-01T22:38:46.429Z,21.00
2022-08-01T22:41:17.879Z,20.90
2022-08-01T22:44:08.509Z,20.80
2022-08-01T22:47:00.479Z,20.90
2022-08-01T22:49:48.255Z,20.80
2022-08-01T22:52:19.811Z,20.80
2022-08-01T22:54:51.326Z,21.10
2022-08-01T22:57:29.803Z,20.90
2022-08-01T23:00:04.883Z,20.90
2022-08-01T23:02:36.350Z,21.00
2022-08-01T23:05:08.044Z,20.90
2022-08-01T23:07:39.921Z,20.90
2022-08-01T23:10:07.934Z,20.80
2022-08-01T23:12:34.917Z,20.70
2022-08-01T23:15:02.039Z,20.70
2022-08-01T23:17:31.368Z,20.60
2022-08-01T23:20:01.569Z,20.50
2022-08-01T23:22:34.268Z,20.30
2022-08-01T23:25:07.081Z,20.40
2022-08-01T23:27:54.284Z,20.30
2022-08-01T23:30:29.960Z,20.30
2022-08-01T23:32:57.541Z,20.20
2022-08-01T23:35:25.419Z,20.30
2022-08-01T23:37:52.895Z,20.20
2022-08-01T23:40:20.262Z,20.30
2022-08-01T23:42:47.122Z,20.20
2022-08-01T23:45:14.040Z,20.10
2022-08-01T23:47:40.767Z,20.20
2022-08-01T23:50:08.195Z,20.00
2022-08-01T23:52:39.545Z,19.90
2022-08-01T23:55:15.696Z,20.00
2022-08-01T23:57:43.174Z,20.00
